createdAt,value
2019-02-26T00:02:24.174Z,16.77
2019-02-26T00:04:54.068Z,16.10
2019-02-26T00:07:24.939Z,15.73
2019-02-26T00:09:51.358Z,15.73
2019-02-26T00:12:21.981Z,16.70
2019-02-26T00:14:50.092Z,15.97
2019-02-26T00:17:19.578Z,15.03
2019-02-26T00:19:47.036Z,14.10
2019-02-26T00:22:15.820Z,14.30
2019-02-26T00:24:44.473Z,13.50
2019-02-26T00:27:12.474Z,13.20
2019-02-26T00:29:39.722Z,14.60
2019-02-26T00:32:07.607Z,14.83
2019-02-26T00:34:37.333Z,14.83
2019-02-26T00:37:06.315Z,13.90
2019-02-26T00:39:34.216Z,12.63
2019-02-26T00:42:02.634Z,10.83
2019-02-26T00:44:32.203Z,10.53
2019-02-26T00:46:59.728Z,9.43
2019-02-26T00:49:30.191Z,8.03
2019-02-26T00:51:57.582Z,8.90
2019-02-26T00:54:26.767Z,8.57
2019-02-26T00:56:57.031Z,9.43
2019-02-26T00:59:22.945Z,7.93
2019-02-26T01:01:52.496Z,9.17
2019-02-26T01:04:19.706Z,8.83
2019-02-26T01:06:46.952Z,8.37
2019-02-26T01:09:14.614Z,8.07
2019-02-26T01:11:42.954Z,8.20
2019-02-26T01:14:10.963Z,10.43
2019-02-26T01:16:39.406Z,8.50
2019-02-26T01:19:09.050Z,8.40
2019-02-26T01:21:37.885Z,9.53
2019-02-26T01:24:06.458Z,7.10
2019-02-26T01:26:34.279Z,6.83
2019-02-26T01:29:01.540Z,6.13
2019-02-26T01:31:29.311Z,5.97
2019-02-26T01:33:57.861Z,5.80
2019-02-26T01:36:25.475Z,5.90
2019-02-26T01:38:53.173Z,5.83
2019-02-26T01:41:22.679Z,5.60
2019-02-26T01:43:49.586Z,5.93
2019-02-26T01:46:18.693Z,6.37
2019-02-26T01:48:45.949Z,7.00
2019-02-26T01:51:13.220Z,6.87
2019-02-26T01:53:41.956Z,6.70
2019-02-26T01:56:09.590Z,7.90
2019-02-26T01:58:36.743Z,8.13
2019-02-26T02:01:04.004Z,7.13
2019-02-26T02:03:32.608Z,7.83
2019-02-26T02:05:59.972Z,8.17
2019-02-26T02:08:27.227Z,7.80
2019-02-26T02:10:57.153Z,8.20
2019-02-26T02:13:26.049Z,8.33
2019-02-26T02:15:52.632Z,9.10
2019-02-26T02:18:22.447Z,9.17
2019-02-26T02:20:49.004Z,9.07
2019-02-26T02:23:16.256Z,8.50
2019-02-26T02:25:45.563Z,8.93
2019-02-26T02:28:12.591Z,9.47
2019-02-26T02:30:39.856Z,9.87
2019-02-26T02:33:07.133Z,8.70
2019-02-26T02:35:34.749Z,9.43
2019-02-26T02:38:03.011Z,10.50
2019-02-26T02:40:31.067Z,10.90
2019-02-26T02:42:58.337Z,9.07
2019-02-26T02:45:25.594Z,9.13
2019-02-26T02:47:57.781Z,10.50
2019-02-26T02:50:21.985Z,10.07
2019-02-26T02:52:50.951Z,10.17
2019-02-26T02:55:19.263Z,10.40
2019-02-26T02:57:49.162Z,11.00
2019-02-26T03:00:16.394Z,10.60
2019-02-26T03:02:46.723Z,10.70
2019-02-26T03:05:12.982Z,11.00
2019-02-26T03:07:42.076Z,11.20
2019-02-26T03:10:13.345Z,11.57
2019-02-26T03:12:40.645Z,11.80
2019-02-26T03:15:10.796Z,11.57
2019-02-26T03:17:38.066Z,12.07
2019-02-26T03:20:10.043Z,11.07
2019-02-26T03:22:41.487Z,9.50
2019-02-26T03:25:09.348Z,11.40
2019-02-26T03:27:37.331Z,11.00
2019-02-26T03:30:20.551Z,12.03
2019-02-26T03:32:46.082Z,12.10
2019-02-26T03:35:13.260Z,11.67
2019-02-26T03:37:41.941Z,11.97
2019-02-26T03:40:11.289Z,11.30
2019-02-26T03:42:40.883Z,11.53
2019-02-26T03:45:10.121Z,11.83
2019-02-26T03:47:39.988Z,11.70
2019-02-26T03:50:09.581Z,12.40
2019-02-26T03:52:36.736Z,12.30
2019-02-26T03:55:08.198Z,11.73
2019-02-26T03:57:34.873Z,11.13
2019-02-26T04:00:08.175Z,11.50
2019-02-26T04:02:33.608Z,11.27
2019-02-26T04:05:02.846Z,11.67
2019-02-26T04:07:30.265Z,11.53
2019-02-26T04:09:59.048Z,10.70
2019-02-26T04:12:26.300Z,11.13
2019-02-26T04:14:53.563Z,9.20
2019-02-26T04:17:23.215Z,9.80
2019-02-26T04:19:49.946Z,11.07
2019-02-26T04:22:26.382Z,10.00
2019-02-26T04:25:01.446Z,9.27
2019-02-26T04:27:50.043Z,8.87
2019-02-26T04:30:52.524Z,9.57
2019-02-26T04:33:35.991Z,9.10
2019-02-26T04:36:23.088Z,8.67
2019-02-26T04:39:27.216Z,8.80
2019-02-26T04:42:16.833Z,9.20
2019-02-26T04:45:09.053Z,9.13
2019-02-26T04:47:41.559Z,8.57
2019-02-26T04:50:09.154Z,8.93
2019-02-26T04:52:38.295Z,9.37
2019-02-26T04:55:07.737Z,9.20
2019-02-26T04:57:34.988Z,9.57
2019-02-26T05:00:04.591Z,9.20
2019-02-26T05:02:31.448Z,8.53
2019-02-26T05:04:58.800Z,9.80
2019-02-26T05:07:26.109Z,9.20
2019-02-26T05:09:56.023Z,9.10
2019-02-26T05:12:25.072Z,9.93
2019-02-26T05:14:51.497Z,9.03
2019-02-26T05:17:21.312Z,9.37
2019-02-26T05:19:48.942Z,8.77
2019-02-26T05:22:19.269Z,8.20
2019-02-26T05:24:47.276Z,9.17
2019-02-26T05:27:19.022Z,9.10
2019-02-26T05:29:46.659Z,9.10
2019-02-26T05:32:14.603Z,10.27
2019-02-26T05:34:44.787Z,9.87
2019-02-26T05:37:11.975Z,9.57
2019-02-26T05:39:40.550Z,10.60
2019-02-26T05:42:09.155Z,9.47
2019-02-26T05:44:36.433Z,9.50
2019-02-26T05:47:03.729Z,8.97
2019-02-26T05:49:32.220Z,8.80
2019-02-26T05:52:01.597Z,9.77
2019-02-26T05:54:29.129Z,9.07
2019-02-26T05:56:56.383Z,9.13
2019-02-26T05:59:23.727Z,8.70
2019-02-26T06:01:54.968Z,7.60
2019-02-26T06:04:21.826Z,7.97
2019-02-26T06:06:51.092Z,8.80
2019-02-26T06:09:20.093Z,8.27
2019-02-26T06:11:50.012Z,7.57
2019-02-26T06:14:16.984Z,8.00
2019-02-26T06:16:46.304Z,9.17
2019-02-26T06:19:14.017Z,9.70
2019-02-26T06:21:44.796Z,8.47
2019-02-26T06:24:11.630Z,8.33
2019-02-26T06:26:40.816Z,7.23
2019-02-26T06:29:08.032Z,8.10
2019-02-26T06:31:37.144Z,6.87
2019-02-26T06:34:06.426Z,7.27
2019-02-26T06:36:33.648Z,7.00
2019-02-26T06:39:01.537Z,6.80
2019-02-26T06:41:30.192Z,5.87
2019-02-26T06:43:57.469Z,6.20
2019-02-26T06:46:26.966Z,5.77
2019-02-26T06:48:53.787Z,6.13
2019-02-26T06:51:23.326Z,6.40
2019-02-26T06:53:52.243Z,5.80
2019-02-26T06:56:19.216Z,6.00
2019-02-26T06:58:47.439Z,6.07
2019-02-26T07:01:16.524Z,6.23
2019-02-26T07:03:43.912Z,6.00
2019-02-26T07:06:11.163Z,6.53
2019-02-26T07:08:38.411Z,6.93
2019-02-26T07:11:07.197Z,6.73
2019-02-26T07:13:36.833Z,7.07
2019-02-26T07:16:05.176Z,6.47
2019-02-26T07:18:32.613Z,7.95
2019-02-26T07:21:00.310Z,7.17
2019-02-26T07:23:29.756Z,6.97
2019-02-26T07:25:56.823Z,6.70
2019-02-26T07:28:25.050Z,6.97
2019-02-26T07:30:53.153Z,7.87
2019-02-26T07:33:20.410Z,7.55
2019-02-26T07:35:47.805Z,8.53
2019-02-26T07:38:16.212Z,6.78
2019-02-26T07:40:44.101Z,8.50
2019-02-26T07:43:14.399Z,7.70
2019-02-26T07:45:40.449Z,9.25
2019-02-26T07:48:07.700Z,9.75
2019-02-26T07:50:39.666Z,8.00
2019-02-26T07:53:04.060Z,8.60
2019-02-26T07:55:32.706Z,7.78
2019-02-26T07:58:00.376Z,6.92
2019-02-26T08:00:27.624Z,8.80
2019-02-26T08:02:57.864Z,8.60
2019-02-26T08:05:26.110Z,8.08
2019-02-26T08:07:54.423Z,10.48
2019-02-26T08:10:22.091Z,8.30
2019-02-26T08:12:49.335Z,9.13
2019-02-26T08:15:16.742Z,8.30
2019-02-26T08:17:47.788Z,8.40
2019-02-26T08:20:14.879Z,7.58
2019-02-26T08:22:42.305Z,6.72
2019-02-26T08:25:10.353Z,7.03
2019-02-26T08:27:38.020Z,6.45
2019-02-26T08:30:14.823Z,7.47
2019-02-26T08:32:42.757Z,10.38
2019-02-26T08:35:10.406Z,8.83
2019-02-26T08:37:37.660Z,10.05
2019-02-26T08:40:09.440Z,8.48
2019-02-26T08:42:36.829Z,8.48
2019-02-26T08:45:14.952Z,8.98
2019-02-26T08:47:41.956Z,9.85
2019-02-26T08:50:12.529Z,7.45
2019-02-26T08:52:39.913Z,7.40
2019-02-26T08:55:10.759Z,7.08
2019-02-26T08:57:38.678Z,7.20
2019-02-26T09:00:19.747Z,7.37
2019-02-26T09:02:50.605Z,7.00
2019-02-26T09:05:16.105Z,5.03
2019-02-26T09:07:45.579Z,5.03
2019-02-26T09:10:17.583Z,6.58
2019-02-26T09:12:46.849Z,6.90
2019-02-26T09:15:16.403Z,7.30
2019-02-26T09:17:43.649Z,8.50
2019-02-26T09:20:14.681Z,5.40
2019-02-26T09:22:45.646Z,5.17
2019-02-26T09:25:12.613Z,4.37
2019-02-26T09:27:43.040Z,10.75
2019-02-26T09:30:13.474Z,16.37
2019-02-26T09:32:44.138Z,9.48
2019-02-26T09:35:11.450Z,7.42
2019-02-26T09:37:38.703Z,7.08
2019-02-26T09:40:09.623Z,5.37
2019-02-26T09:42:36.876Z,14.55
2019-02-26T09:45:07.715Z,15.55
2019-02-26T09:47:34.988Z,5.97
2019-02-26T09:50:02.538Z,9.85
2019-02-26T09:52:30.315Z,8.03
2019-02-26T09:54:58.851Z,10.13
2019-02-26T09:57:28.193Z,3.80
2019-02-26T09:59:57.322Z,3.75
2019-02-26T10:02:26.348Z,4.03
2019-02-26T10:04:54.443Z,5.60
2019-02-26T10:07:21.723Z,5.55
2019-02-26T10:09:49.067Z,3.22
2019-02-26T10:12:17.345Z,3.47
2019-02-26T10:14:44.587Z,3.45
2019-02-26T10:17:14.042Z,7.85
2019-02-26T10:19:42.873Z,3.77
2019-02-26T10:22:13.503Z,3.30
2019-02-26T10:24:40.414Z,3.55
2019-02-26T10:27:10.895Z,8.80
2019-02-26T10:29:39.277Z,4.05
2019-02-26T10:32:06.047Z,3.30
2019-02-26T10:34:33.321Z,3.25
2019-02-26T10:37:00.570Z,4.47
2019-02-26T10:39:28.328Z,4.10
2019-02-26T10:41:55.715Z,4.42
2019-02-26T10:44:22.965Z,6.05
2019-02-26T10:46:50.259Z,4.50
2019-02-26T10:49:17.512Z,6.20
2019-02-26T10:51:44.769Z,5.55
2019-02-26T10:54:15.496Z,3.47
2019-02-26T10:56:42.566Z,2.58
2019-02-26T10:59:12.560Z,3.70
2019-02-26T11:01:39.417Z,4.62
2019-02-26T11:04:06.755Z,3.58
2019-02-26T11:06:36.663Z,3.55
2019-02-26T11:09:06.901Z,4.37
2019-02-26T11:11:35.671Z,3.83
2019-02-26T11:14:05.200Z,3.37
2019-02-26T11:16:33.102Z,3.70
2019-02-26T11:19:02.382Z,5.80
2019-02-26T11:21:30.631Z,5.22
2019-02-26T11:23:58.467Z,4.97
2019-02-26T11:26:27.088Z,6.97
2019-02-26T11:28:54.346Z,6.80
2019-02-26T11:31:25.319Z,5.58
2019-02-26T11:33:51.049Z,4.78
2019-02-26T11:36:18.291Z,3.75
2019-02-26T11:38:47.058Z,5.80
2019-02-26T11:41:14.476Z,6.55
2019-02-26T11:43:42.099Z,3.92
2019-02-26T11:46:09.375Z,3.37
2019-02-26T11:48:36.647Z,5.25
2019-02-26T11:51:03.929Z,3.75
2019-02-26T11:53:31.184Z,5.12
2019-02-26T11:55:59.867Z,4.50
2019-02-26T11:58:27.587Z,4.95
2019-02-26T12:00:57.374Z,4.65
2019-02-26T12:03:25.443Z,5.03
2019-02-26T12:05:56.147Z,3.90
2019-02-26T12:08:25.051Z,4.28
2019-02-26T12:10:52.364Z,4.10
2019-02-26T12:13:20.362Z,3.90
2019-02-26T12:15:48.772Z,3.40
2019-02-26T12:18:17.919Z,4.62
2019-02-26T12:20:46.591Z,4.55
2019-02-26T12:23:16.273Z,4.20
2019-02-26T12:25:43.293Z,3.62
2019-02-26T12:28:11.557Z,3.83
2019-02-26T12:30:41.470Z,4.40
2019-02-26T12:33:09.842Z,3.75
2019-02-26T12:35:38.670Z,3.27
2019-02-26T12:38:17.283Z,3.77
2019-02-26T12:40:37.899Z,6.60
2019-02-26T12:43:06.572Z,7.70
2019-02-26T12:45:37.762Z,6.30
2019-02-26T12:48:03.414Z,6.00
2019-02-26T12:50:32.798Z,5.12
2019-02-26T12:52:59.777Z,5.83
2019-02-26T12:55:29.593Z,7.17
2019-02-26T12:57:56.546Z,3.40
2019-02-26T13:00:25.299Z,3.72
2019-02-26T13:02:52.544Z,4.92
2019-02-26T13:05:22.950Z,3.37
2019-02-26T13:07:48.894Z,3.12
2019-02-26T13:10:26.038Z,3.40
2019-02-26T13:12:58.918Z,3.00
2019-02-26T13:15:22.479Z,3.35
2019-02-26T13:17:54.247Z,4.28
2019-02-26T13:20:23.935Z,2.90
2019-02-26T13:22:56.502Z,3.17
2019-02-26T13:25:21.431Z,4.97
2019-02-26T13:27:49.467Z,3.40
2019-02-26T13:30:23.992Z,3.70
2019-02-26T13:32:56.233Z,3.75
2019-02-26T13:35:20.548Z,5.47
2019-02-26T13:37:52.931Z,5.95
2019-02-26T13:40:21.391Z,4.10
2019-02-26T13:42:56.583Z,3.00
2019-02-26T13:45:19.822Z,3.72
2019-02-26T13:47:47.294Z,2.90
2019-02-26T13:50:23.617Z,3.30
2019-02-26T13:52:50.935Z,3.08
2019-02-26T13:55:18.201Z,3.92
2019-02-26T13:57:45.744Z,4.40
2019-02-26T14:00:14.629Z,3.52
2019-02-26T14:02:41.978Z,2.83
2019-02-26T14:05:13.539Z,3.47
2019-02-26T14:07:41.134Z,3.52
2019-02-26T14:10:19.909Z,3.05
2019-02-26T14:12:47.276Z,4.08
2019-02-26T14:15:25.778Z,4.30
2019-02-26T14:17:53.485Z,3.62
2019-02-26T14:20:21.127Z,3.90
2019-02-26T14:22:48.476Z,4.72
2019-02-26T14:25:15.724Z,4.35
2019-02-26T14:27:42.998Z,4.53
2019-02-26T14:30:18.565Z,4.37
2019-02-26T14:32:45.929Z,4.00
2019-02-26T14:35:15.312Z,3.77
2019-02-26T14:37:42.847Z,4.12
2019-02-26T14:40:14.168Z,9.40
2019-02-26T14:42:41.520Z,10.17
2019-02-26T14:45:15.998Z,8.40
2019-02-26T14:47:43.335Z,6.97
2019-02-26T14:50:15.738Z,7.00
2019-02-26T14:52:43.277Z,8.10
2019-02-26T14:55:12.451Z,6.67
2019-02-26T14:57:39.800Z,6.70
2019-02-26T15:00:14.679Z,7.27
2019-02-26T15:02:41.975Z,9.80
2019-02-26T15:05:09.245Z,10.03
2019-02-26T15:07:36.599Z,8.20
2019-02-26T15:10:08.824Z,9.03
2019-02-26T15:12:36.142Z,10.17
2019-02-26T15:15:09.274Z,9.90
2019-02-26T15:17:36.667Z,8.17
2019-02-26T15:20:07.536Z,10.37
2019-02-26T15:22:34.839Z,8.83
2019-02-26T15:25:02.348Z,9.23
2019-02-26T15:27:36.849Z,11.17
2019-02-26T15:29:59.651Z,10.83
2019-02-26T15:32:26.982Z,11.67
2019-02-26T15:34:54.308Z,11.50
2019-02-26T15:37:21.571Z,9.60
2019-02-26T15:39:48.900Z,9.80
2019-02-26T15:42:16.204Z,9.70
2019-02-26T15:44:43.497Z,9.17
2019-02-26T15:47:10.813Z,11.37
2019-02-26T15:49:38.507Z,13.03
2019-02-26T15:52:07.105Z,13.10
2019-02-26T15:54:34.562Z,12.00
2019-02-26T15:57:03.361Z,13.37
2019-02-26T15:59:30.790Z,14.67
2019-02-26T16:01:58.158Z,15.60
2019-02-26T16:04:25.865Z,14.03
2019-02-26T16:06:53.073Z,14.03
2019-02-26T16:09:20.456Z,12.43
2019-02-26T16:11:47.730Z,13.17
2019-02-26T16:14:14.963Z,13.23
2019-02-26T16:16:42.136Z,11.03
2019-02-26T16:19:09.307Z,10.73
2019-02-26T16:21:36.713Z,9.33
2019-02-26T16:24:03.868Z,10.90
2019-02-26T16:26:31.024Z,10.00
2019-02-26T16:29:00.814Z,8.33
2019-02-26T16:31:29.914Z,9.43
2019-02-26T16:33:57.937Z,8.30
2019-02-26T16:36:25.237Z,8.47
2019-02-26T16:38:52.439Z,9.00
2019-02-26T16:41:19.608Z,9.83
2019-02-26T16:43:47.340Z,10.40
2019-02-26T16:46:14.654Z,10.27
2019-02-26T16:48:42.293Z,11.70
2019-02-26T16:51:09.523Z,11.90
2019-02-26T16:53:36.763Z,13.43
2019-02-26T16:56:04.034Z,15.50
2019-02-26T16:58:35.111Z,15.07
2019-02-26T17:01:00.508Z,15.73
2019-02-26T17:03:27.644Z,15.33
2019-02-26T17:05:54.828Z,13.07
2019-02-26T17:08:22.048Z,12.20
2019-02-26T17:10:49.715Z,11.03
2019-02-26T17:13:16.879Z,10.17
2019-02-26T17:15:44.209Z,11.13
2019-02-26T17:18:11.453Z,11.43
2019-02-26T17:20:38.720Z,11.13
2019-02-26T17:23:06.357Z,16.93
2019-02-26T17:25:33.608Z,11.50
2019-02-26T17:28:00.843Z,10.20
2019-02-26T17:30:28.350Z,10.03
2019-02-26T17:32:55.899Z,11.23
2019-02-26T17:35:23.099Z,11.07
2019-02-26T17:37:50.243Z,10.67
2019-02-26T17:40:19.603Z,10.50
2019-02-26T17:42:48.902Z,10.77
2019-02-26T17:45:19.341Z,12.03
2019-02-26T17:47:46.529Z,11.20
2019-02-26T17:50:26.583Z,11.97
2019-02-26T17:52:53.720Z,11.83
2019-02-26T17:55:21.170Z,14.97
2019-02-26T17:57:48.499Z,18.57
2019-02-26T18:00:21.543Z,21.27
2019-02-26T18:02:48.772Z,22.40
2019-02-26T18:05:15.953Z,20.37
2019-02-26T18:07:43.223Z,19.27
2019-02-26T18:10:13.545Z,16.57
2019-02-26T18:12:42.681Z,15.07
2019-02-26T18:15:10.721Z,14.80
2019-02-26T18:17:38.035Z,14.07
2019-02-26T18:20:09.014Z,14.27
2019-02-26T18:22:36.416Z,15.40
2019-02-26T18:25:07.008Z,15.27
2019-02-26T18:27:34.204Z,20.00
2019-02-26T18:30:01.395Z,17.40
2019-02-26T18:32:28.560Z,20.17
2019-02-26T18:34:55.752Z,19.73
2019-02-26T18:37:23.000Z,19.10
2019-02-26T18:39:54.371Z,19.10
2019-02-26T18:42:19.391Z,18.10
2019-02-26T18:44:46.697Z,18.27
2019-02-26T18:47:13.862Z,16.33
2019-02-26T18:49:41.529Z,16.33
2019-02-26T18:52:09.136Z,17.50
2019-02-26T18:54:36.365Z,17.53
2019-02-26T18:57:03.572Z,18.77
2019-02-26T18:59:30.827Z,17.90
2019-02-26T19:01:58.175Z,17.70
2019-02-26T19:04:25.529Z,16.93
2019-02-26T19:06:52.904Z,14.03
2019-02-26T19:09:20.069Z,12.43
2019-02-26T19:11:47.422Z,13.30
2019-02-26T19:14:14.571Z,13.20
2019-02-26T19:16:41.783Z,13.00
2019-02-26T19:19:09.673Z,15.43
2019-02-26T19:21:37.005Z,20.03
2019-02-26T19:24:04.611Z,23.10
2019-02-26T19:26:32.522Z,23.50
2019-02-26T19:28:59.772Z,32.90
2019-02-26T19:31:27.087Z,28.80
2019-02-26T19:33:54.819Z,27.77
2019-02-26T19:36:22.756Z,25.67
2019-02-26T19:38:49.897Z,26.77
2019-02-26T19:41:17.118Z,26.23
2019-02-26T19:43:44.446Z,20.87
2019-02-26T19:46:11.875Z,20.33
2019-02-26T19:48:39.039Z,20.20
2019-02-26T19:51:06.288Z,20.00
2019-02-26T19:53:34.713Z,19.43
2019-02-26T19:56:02.770Z,17.90
2019-02-26T19:58:31.737Z,18.37
2019-02-26T20:00:59.067Z,20.97
2019-02-26T20:03:26.247Z,20.17
2019-02-26T20:05:53.456Z,19.47
2019-02-26T20:08:20.723Z,20.30
2019-02-26T20:10:50.990Z,19.80
2019-02-26T20:13:17.923Z,17.57
2019-02-26T20:15:45.247Z,17.03
2019-02-26T20:18:20.529Z,17.50
2019-02-26T20:20:45.759Z,15.73
2019-02-26T20:23:10.816Z,14.73
2019-02-26T20:25:37.983Z,16.47
2019-02-26T20:28:05.797Z,15.13
2019-02-26T20:30:33.114Z,14.87
2019-02-26T20:33:01.543Z,14.93
2019-02-26T20:35:29.520Z,13.90
2019-02-26T20:37:58.852Z,13.93
2019-02-26T20:40:25.813Z,14.67
2019-02-26T20:42:53.025Z,14.00
2019-02-26T20:45:22.567Z,11.50
2019-02-26T20:47:49.759Z,10.57
2019-02-26T20:50:19.885Z,10.43
2019-02-26T20:52:45.985Z,10.63
2019-02-26T20:55:20.730Z,10.00
2019-02-26T20:57:48.051Z,9.50
2019-02-26T21:00:16.924Z,9.20
2019-02-26T21:02:44.275Z,9.23
2019-02-26T21:05:11.648Z,7.90
2019-02-26T21:07:38.960Z,8.60
2019-02-26T21:10:15.016Z,9.73
2019-02-26T21:12:40.344Z,10.13
2019-02-26T21:15:13.632Z,8.70
2019-02-26T21:17:39.180Z,10.43
2019-02-26T21:20:09.186Z,9.33
2019-02-26T21:22:36.347Z,9.37
2019-02-26T21:25:05.160Z,9.17
2019-02-26T21:27:32.571Z,10.23
2019-02-26T21:29:59.883Z,9.80
2019-02-26T21:32:27.149Z,10.17
2019-02-26T21:34:54.320Z,10.57
2019-02-26T21:37:21.571Z,8.60
2019-02-26T21:39:48.841Z,9.80
2019-02-26T21:42:16.031Z,10.13
2019-02-26T21:44:43.225Z,8.60
2019-02-26T21:47:10.502Z,8.90
2019-02-26T21:49:37.747Z,8.23
2019-02-26T21:52:08.777Z,8.10
2019-02-26T21:54:34.103Z,8.27
2019-02-26T21:57:01.297Z,9.00
2019-02-26T21:59:32.589Z,11.17
2019-02-26T22:01:57.518Z,10.80
2019-02-26T22:04:24.583Z,10.57
2019-02-26T22:06:51.870Z,10.77
2019-02-26T22:09:19.193Z,10.70
2019-02-26T22:11:50.374Z,11.57
2019-02-26T22:14:16.537Z,10.30
2019-02-26T22:16:43.857Z,11.07
2019-02-26T22:19:10.992Z,10.57
2019-02-26T22:21:41.793Z,11.13
2019-02-26T22:24:09.754Z,11.40
2019-02-26T22:26:37.105Z,10.80
2019-02-26T22:29:04.245Z,10.63
2019-02-26T22:31:31.416Z,10.27
2019-02-26T22:33:58.585Z,10.30
2019-02-26T22:36:25.764Z,9.70
2019-02-26T22:38:52.952Z,9.40
2019-02-26T22:41:20.100Z,10.03
2019-02-26T22:43:47.613Z,9.33
2019-02-26T22:46:15.459Z,9.17
2019-02-26T22:48:44.616Z,10.00
2019-02-26T22:51:11.636Z,9.20
2019-02-26T22:53:38.895Z,9.50
2019-02-26T22:56:06.040Z,10.10
2019-02-26T22:58:35.639Z,10.83
2019-02-26T23:01:12.133Z,10.00
2019-02-26T23:03:40.383Z,9.17
2019-02-26T23:06:07.745Z,9.17
2019-02-26T23:08:35.067Z,9.70
2019-02-26T23:11:02.426Z,8.30
2019-02-26T23:13:31.878Z,8.90
2019-02-26T23:15:59.036Z,9.03
2019-02-26T23:18:28.453Z,8.53
2019-02-26T23:20:55.380Z,8.10
2019-02-26T23:23:22.606Z,7.83
2019-02-26T23:25:49.893Z,8.27
2019-02-26T23:28:17.108Z,7.47
2019-02-26T23:30:44.361Z,7.40
2019-02-26T23:33:15.047Z,7.87
2019-02-26T23:35:43.306Z,7.40
2019-02-26T23:38:11.625Z,7.70
2019-02-26T23:40:38.762Z,7.23
2019-02-26T23:43:05.916Z,7.70
2019-02-26T23:45:33.336Z,8.03
2019-02-26T23:48:00.501Z,7.37
2019-02-26T23:50:27.727Z,7.43
2019-02-26T23:52:54.894Z,7.43
2019-02-26T23:55:22.079Z,7.43
2019-02-26T23:57:49.263Z,7.43
